Terminal Aerodrome Forecast
Issued by NWS

Home | Current Version | Previous Version | Graphics & Text | Print | Product List | Glossary On
Versions: 1 2 3 4 5 6 7 8 9 10 11 12 13 14 15 16 17 18 19 20 21 22 23 24 25 26 27 28 29 30 31 32 33 34 35 36
000
FTUS43 KGRB 060507 AAA
TAFRHI
TAF AMD
KRHI 060507Z 0605/0624 19005KT P6SM SCT035 BKN100 WS015/23035KT
     FM060700 15004KT 6SM BR SCT035 BKN140 WS015/22035KT
      TEMPO 0608/0612 4SM BR
     FM061400 19012G18KT P6SM VCSH SCT025 OVC050 PROB30 0614/0617
      2SM TSRA BR SCT009 OVC025CB
     FM061700 19010G18KT 5SM -RA BR SCT012 BKN025
      TEMPO 0617/0621 2SM TSRA OVC020CB
     FM062200 30010KT P6SM SCT009 OVC020=

USA.gov is the U.S. government's official web portal to all federal, state and local government web resources and services.